sensor_id;sensor_type;location;lat;lon;timestamp;P1;durP1;ratioP1;P2;durP2;ratioP2
21305;SDS011;10812;51.838;5.838;2022-12-18T00:00:04;37.27;;;17.30;;
21305;SDS011;10812;51.838;5.838;2022-12-18T00:02:33;29.63;;;15.60;;
21305;SDS011;10812;51.838;5.838;2022-12-18T00:05:02;37.27;;;16.63;;
21305;SDS011;10812;51.838;5.838;2022-12-18T00:07:30;37.37;;;16.40;;
21305;SDS011;10812;51.838;5.838;2022-12-18T00:09:58;31.33;;;16.93;;
21305;SDS011;10812;51.838;5.838;2022-12-18T00:12:26;36.73;;;16.70;;
21305;SDS011;10812;51.838;5.838;2022-12-18T00:14:56;41.13;;;18.63;;
21305;SDS011;10812;51.838;5.838;2022-12-18T00:17:25;38.07;;;15.93;;
21305;SDS011;10812;51.838;5.838;2022-12-18T00:19:53;30.47;;;15.20;;
21305;SDS011;10812;51.838;5.838;2022-12-18T00:22:21;39.07;;;15.87;;
21305;SDS011;10812;51.838;5.838;2022-12-18T00:24:49;32.60;;;16.40;;
21305;SDS011;10812;51.838;5.838;2022-12-18T00:27:17;34.20;;;16.50;;
21305;SDS011;10812;51.838;5.838;2022-12-18T00:29:45;37.33;;;16.57;;
21305;SDS011;10812;51.838;5.838;2022-12-18T00:32:14;34.93;;;15.83;;
21305;SDS011;10812;51.838;5.838;2022-12-18T00:34:42;29.13;;;14.40;;
21305;SDS011;10812;51.838;5.838;2022-12-18T00:37:10;30.87;;;14.70;;
21305;SDS011;10812;51.838;5.838;2022-12-18T00:39:45;32.23;;;16.00;;
21305;SDS011;10812;51.838;5.838;2022-12-18T00:42:15;27.03;;;14.90;;
21305;SDS011;10812;51.838;5.838;2022-12-18T00:44:57;23.73;;;13.17;;
21305;SDS011;10812;51.838;5.838;2022-12-18T00:47:27;27.53;;;13.57;;
21305;SDS011;10812;51.838;5.838;2022-12-18T00:49:55;29.43;;;13.80;;
21305;SDS011;10812;51.838;5.838;2022-12-18T00:52:23;27.80;;;13.83;;
21305;SDS011;10812;51.838;5.838;2022-12-18T00:54:51;29.37;;;15.03;;
21305;SDS011;10812;51.838;5.838;2022-12-18T00:57:19;28.00;;;13.83;;
21305;SDS011;10812;51.838;5.838;2022-12-18T00:59:47;29.73;;;14.17;;
21305;SDS011;10812;51.838;5.838;2022-12-18T01:02:15;26.63;;;12.43;;
21305;SDS011;10812;51.838;5.838;2022-12-18T01:04:45;26.67;;;14.37;;
21305;SDS011;10812;51.838;5.838;2022-12-18T01:07:13;25.70;;;12.40;;
21305;SDS011;10812;51.838;5.838;2022-12-18T01:09:41;21.77;;;11.27;;
21305;SDS011;10812;51.838;5.838;2022-12-18T01:12:09;20.47;;;11.40;;
21305;SDS011;10812;51.838;5.838;2022-12-18T01:14:37;24.43;;;12.87;;
21305;SDS011;10812;51.838;5.838;2022-12-18T01:17:05;25.07;;;11.83;;
21305;SDS011;10812;51.838;5.838;2022-12-18T01:19:33;28.47;;;11.93;;
21305;SDS011;10812;51.838;5.838;2022-12-18T01:22:03;25.73;;;11.40;;
21305;SDS011;10812;51.838;5.838;2022-12-18T01:24:32;23.37;;;12.43;;
21305;SDS011;10812;51.838;5.838;2022-12-18T01:27:00;19.90;;;9.83;;
21305;SDS011;10812;51.838;5.838;2022-12-18T01:29:28;20.23;;;11.50;;
21305;SDS011;10812;51.838;5.838;2022-12-18T01:31:56;21.83;;;10.63;;
21305;SDS011;10812;51.838;5.838;2022-12-18T01:34:24;18.57;;;10.37;;
21305;SDS011;10812;51.838;5.838;2022-12-18T01:36:52;19.03;;;10.60;;
21305;SDS011;10812;51.838;5.838;2022-12-18T01:39:21;20.63;;;11.73;;
21305;SDS011;10812;51.838;5.838;2022-12-18T01:41:49;22.77;;;10.80;;
21305;SDS011;10812;51.838;5.838;2022-12-18T01:47:23;23.13;;;10.37;;
21305;SDS011;10812;51.838;5.838;2022-12-18T01:49:55;21.97;;;11.23;;
21305;SDS011;10812;51.838;5.838;2022-12-18T01:52:25;19.70;;;11.03;;
21305;SDS011;10812;51.838;5.838;2022-12-18T01:54:57;20.87;;;10.53;;
21305;SDS011;10812;51.838;5.838;2022-12-18T01:57:26;22.70;;;10.70;;
21305;SDS011;10812;51.838;5.838;2022-12-18T01:59:56;22.60;;;11.93;;
21305;SDS011;10812;51.838;5.838;2022-12-18T02:02:27;21.43;;;11.33;;
21305;SDS011;10812;51.838;5.838;2022-12-18T02:04:57;20.30;;;10.23;;
21305;SDS011;10812;51.838;5.838;2022-12-18T02:07:28;20.03;;;11.10;;
21305;SDS011;10812;51.838;5.838;2022-12-18T02:10:07;19.87;;;10.13;;
21305;SDS011;10812;51.838;5.838;2022-12-18T02:12:42;20.20;;;9.17;;
21305;SDS011;10812;51.838;5.838;2022-12-18T02:15:18;19.57;;;11.07;;
21305;SDS011;10812;51.838;5.838;2022-12-18T02:17:54;18.97;;;9.67;;
21305;SDS011;10812;51.838;5.838;2022-12-18T02:20:27;19.37;;;8.83;;
21305;SDS011;10812;51.838;5.838;2022-12-18T02:23:04;20.47;;;9.13;;
21305;SDS011;10812;51.838;5.838;2022-12-18T02:25:43;17.27;;;8.87;;
21305;SDS011;10812;51.838;5.838;2022-12-18T02:28:30;18.70;;;9.83;;
21305;SDS011;10812;51.838;5.838;2022-12-18T02:31:01;18.87;;;9.33;;
21305;SDS011;10812;51.838;5.838;2022-12-18T02:33:33;19.70;;;9.70;;
21305;SDS011;10812;51.838;5.838;2022-12-18T02:36:03;20.03;;;9.97;;
21305;SDS011;10812;51.838;5.838;2022-12-18T02:38:32;17.00;;;9.53;;
21305;SDS011;10812;51.838;5.838;2022-12-18T02:41:03;17.33;;;8.87;;
21305;SDS011;10812;51.838;5.838;2022-12-18T02:43:32;19.03;;;8.73;;
21305;SDS011;10812;51.838;5.838;2022-12-18T02:46:01;15.83;;;9.30;;
21305;SDS011;10812;51.838;5.838;2022-12-18T02:48:59;16.60;;;9.23;;
21305;SDS011;10812;51.838;5.838;2022-12-18T02:51:36;15.57;;;8.93;;
21305;SDS011;10812;51.838;5.838;2022-12-18T02:54:09;15.27;;;8.80;;
21305;SDS011;10812;51.838;5.838;2022-12-18T02:56:48;15.07;;;8.67;;
21305;SDS011;10812;51.838;5.838;2022-12-18T02:59:22;16.87;;;9.03;;
21305;SDS011;10812;51.838;5.838;2022-12-18T03:07:18;18.83;;;9.30;;
21305;SDS011;10812;51.838;5.838;2022-12-18T03:09:50;14.53;;;7.50;;
21305;SDS011;10812;51.838;5.838;2022-12-18T03:12:22;13.90;;;8.33;;
21305;SDS011;10812;51.838;5.838;2022-12-18T03:14:57;18.03;;;9.30;;
21305;SDS011;10812;51.838;5.838;2022-12-18T03:17:30;15.10;;;7.87;;
21305;SDS011;10812;51.838;5.838;2022-12-18T03:20:03;16.43;;;8.53;;
21305;SDS011;10812;51.838;5.838;2022-12-18T03:22:33;15.87;;;8.73;;
21305;SDS011;10812;51.838;5.838;2022-12-18T03:25:05;17.77;;;7.47;;
21305;SDS011;10812;51.838;5.838;2022-12-18T03:27:38;14.97;;;8.00;;
21305;SDS011;10812;51.838;5.838;2022-12-18T03:30:11;14.63;;;7.50;;
21305;SDS011;10812;51.838;5.838;2022-12-18T03:32:42;11.57;;;7.33;;
21305;SDS011;10812;51.838;5.838;2022-12-18T03:35:14;15.83;;;7.27;;
21305;SDS011;10812;51.838;5.838;2022-12-18T03:37:47;14.73;;;7.47;;
21305;SDS011;10812;51.838;5.838;2022-12-18T03:43:43;12.03;;;6.97;;
21305;SDS011;10812;51.838;5.838;2022-12-18T03:46:17;15.57;;;7.67;;
21305;SDS011;10812;51.838;5.838;2022-12-18T03:48:55;15.80;;;7.97;;
21305;SDS011;10812;51.838;5.838;2022-12-18T03:51:28;16.67;;;7.60;;
21305;SDS011;10812;51.838;5.838;2022-12-18T03:54:05;10.17;;;6.60;;
21305;SDS011;10812;51.838;5.838;2022-12-18T03:56:36;15.33;;;8.33;;
21305;SDS011;10812;51.838;5.838;2022-12-18T03:59:09;14.37;;;7.80;;
21305;SDS011;10812;51.838;5.838;2022-12-18T04:01:40;11.20;;;6.43;;
21305;SDS011;10812;51.838;5.838;2022-12-18T04:04:12;13.97;;;7.23;;
21305;SDS011;10812;51.838;5.838;2022-12-18T04:06:42;14.93;;;7.70;;
21305;SDS011;10812;51.838;5.838;2022-12-18T04:09:12;12.53;;;7.43;;
21305;SDS011;10812;51.838;5.838;2022-12-18T04:11:41;11.80;;;7.00;;
21305;SDS011;10812;51.838;5.838;2022-12-18T04:14:11;14.80;;;7.40;;
21305;SDS011;10812;51.838;5.838;2022-12-18T04:16:43;13.10;;;6.93;;
21305;SDS011;10812;51.838;5.838;2022-12-18T04:19:11;13.57;;;7.80;;
21305;SDS011;10812;51.838;5.838;2022-12-18T04:21:39;13.80;;;7.17;;
21305;SDS011;10812;51.838;5.838;2022-12-18T04:24:07;14.30;;;7.17;;
21305;SDS011;10812;51.838;5.838;2022-12-18T04:26:35;11.47;;;6.20;;
21305;SDS011;10812;51.838;5.838;2022-12-18T04:29:04;10.80;;;6.43;;
21305;SDS011;10812;51.838;5.838;2022-12-18T04:31:33;12.33;;;6.13;;
21305;SDS011;10812;51.838;5.838;2022-12-18T04:34:02;11.97;;;6.80;;
21305;SDS011;10812;51.838;5.838;2022-12-18T04:36:30;18.87;;;7.90;;
21305;SDS011;10812;51.838;5.838;2022-12-18T04:38:58;11.73;;;6.13;;
21305;SDS011;10812;51.838;5.838;2022-12-18T04:41:26;12.83;;;6.73;;
21305;SDS011;10812;51.838;5.838;2022-12-18T04:43:54;10.47;;;6.50;;
21305;SDS011;10812;51.838;5.838;2022-12-18T04:46:22;13.07;;;6.47;;
21305;SDS011;10812;51.838;5.838;2022-12-18T04:48:52;9.23;;;6.63;;
21305;SDS011;10812;51.838;5.838;2022-12-18T04:51:20;10.90;;;5.90;;
21305;SDS011;10812;51.838;5.838;2022-12-18T04:53:52;12.67;;;6.77;;
21305;SDS011;10812;51.838;5.838;2022-12-18T04:56:20;12.97;;;6.80;;
21305;SDS011;10812;51.838;5.838;2022-12-18T04:58:49;10.77;;;6.43;;
21305;SDS011;10812;51.838;5.838;2022-12-18T05:01:17;11.17;;;6.33;;
21305;SDS011;10812;51.838;5.838;2022-12-18T05:03:46;13.67;;;6.23;;
21305;SDS011;10812;51.838;5.838;2022-12-18T05:06:15;12.13;;;6.70;;
21305;SDS011;10812;51.838;5.838;2022-12-18T05:08:44;9.70;;;6.27;;
21305;SDS011;10812;51.838;5.838;2022-12-18T05:11:12;11.43;;;5.83;;
21305;SDS011;10812;51.838;5.838;2022-12-18T05:13:42;11.43;;;6.17;;
21305;SDS011;10812;51.838;5.838;2022-12-18T05:16:11;11.73;;;6.43;;
21305;SDS011;10812;51.838;5.838;2022-12-18T05:18:40;13.30;;;7.17;;
21305;SDS011;10812;51.838;5.838;2022-12-18T05:21:10;12.40;;;6.43;;
21305;SDS011;10812;51.838;5.838;2022-12-18T05:23:39;10.20;;;6.13;;
21305;SDS011;10812;51.838;5.838;2022-12-18T05:26:08;9.97;;;6.43;;
21305;SDS011;10812;51.838;5.838;2022-12-18T05:28:41;14.03;;;6.57;;
21305;SDS011;10812;51.838;5.838;2022-12-18T05:31:09;14.43;;;7.27;;
21305;SDS011;10812;51.838;5.838;2022-12-18T05:33:38;15.90;;;8.20;;
21305;SDS011;10812;51.838;5.838;2022-12-18T05:36:07;14.77;;;7.17;;
21305;SDS011;10812;51.838;5.838;2022-12-18T05:38:36;11.73;;;7.80;;
21305;SDS011;10812;51.838;5.838;2022-12-18T05:41:06;13.50;;;8.20;;
21305;SDS011;10812;51.838;5.838;2022-12-18T05:43:36;13.73;;;7.37;;
21305;SDS011;10812;51.838;5.838;2022-12-18T05:46:05;15.20;;;8.77;;
21305;SDS011;10812;51.838;5.838;2022-12-18T05:48:35;15.27;;;7.97;;
21305;SDS011;10812;51.838;5.838;2022-12-18T05:51:04;12.53;;;6.83;;
21305;SDS011;10812;51.838;5.838;2022-12-18T05:53:33;16.27;;;8.77;;
21305;SDS011;10812;51.838;5.838;2022-12-18T05:56:04;13.27;;;7.63;;
21305;SDS011;10812;51.838;5.838;2022-12-18T05:58:35;15.60;;;7.50;;
21305;SDS011;10812;51.838;5.838;2022-12-18T06:01:07;13.47;;;8.17;;
21305;SDS011;10812;51.838;5.838;2022-12-18T06:03:37;19.17;;;8.97;;
21305;SDS011;10812;51.838;5.838;2022-12-18T06:06:12;12.73;;;7.43;;
21305;SDS011;10812;51.838;5.838;2022-12-18T06:08:41;13.77;;;7.30;;
21305;SDS011;10812;51.838;5.838;2022-12-18T06:11:15;12.60;;;7.20;;
21305;SDS011;10812;51.838;5.838;2022-12-18T06:13:45;12.60;;;7.20;;
21305;SDS011;10812;51.838;5.838;2022-12-18T06:16:13;14.17;;;7.07;;
21305;SDS011;10812;51.838;5.838;2022-12-18T06:18:41;14.87;;;7.40;;
21305;SDS011;10812;51.838;5.838;2022-12-18T06:21:09;15.33;;;7.80;;
21305;SDS011;10812;51.838;5.838;2022-12-18T06:23:37;12.67;;;6.73;;
21305;SDS011;10812;51.838;5.838;2022-12-18T06:26:06;11.43;;;6.50;;
21305;SDS011;10812;51.838;5.838;2022-12-18T06:28:37;14.50;;;7.23;;
21305;SDS011;10812;51.838;5.838;2022-12-18T06:31:06;11.07;;;6.80;;
21305;SDS011;10812;51.838;5.838;2022-12-18T06:33:35;13.47;;;7.47;;
21305;SDS011;10812;51.838;5.838;2022-12-18T06:36:04;14.53;;;7.67;;
21305;SDS011;10812;51.838;5.838;2022-12-18T06:38:35;10.20;;;6.10;;
21305;SDS011;10812;51.838;5.838;2022-12-18T06:41:09;11.90;;;6.63;;
21305;SDS011;10812;51.838;5.838;2022-12-18T06:43:39;15.13;;;7.47;;
21305;SDS011;10812;51.838;5.838;2022-12-18T06:46:08;14.63;;;7.23;;
21305;SDS011;10812;51.838;5.838;2022-12-18T06:48:37;11.53;;;7.53;;
21305;SDS011;10812;51.838;5.838;2022-12-18T06:51:05;14.50;;;7.07;;
21305;SDS011;10812;51.838;5.838;2022-12-18T06:53:33;12.37;;;6.93;;
21305;SDS011;10812;51.838;5.838;2022-12-18T06:56:02;14.00;;;7.97;;
21305;SDS011;10812;51.838;5.838;2022-12-18T06:58:35;14.50;;;7.03;;
21305;SDS011;10812;51.838;5.838;2022-12-18T07:01:06;11.63;;;8.07;;
21305;SDS011;10812;51.838;5.838;2022-12-18T07:03:35;11.90;;;7.00;;
21305;SDS011;10812;51.838;5.838;2022-12-18T07:06:04;13.87;;;7.27;;
21305;SDS011;10812;51.838;5.838;2022-12-18T07:08:33;11.60;;;7.27;;
21305;SDS011;10812;51.838;5.838;2022-12-18T07:11:02;13.80;;;7.57;;
21305;SDS011;10812;51.838;5.838;2022-12-18T07:13:31;11.00;;;6.43;;
21305;SDS011;10812;51.838;5.838;2022-12-18T07:16:04;12.03;;;6.63;;
21305;SDS011;10812;51.838;5.838;2022-12-18T07:18:43;14.63;;;7.50;;
21305;SDS011;10812;51.838;5.838;2022-12-18T07:21:13;13.83;;;7.10;;
21305;SDS011;10812;51.838;5.838;2022-12-18T07:23:42;12.83;;;7.40;;
21305;SDS011;10812;51.838;5.838;2022-12-18T07:26:12;13.37;;;7.83;;
21305;SDS011;10812;51.838;5.838;2022-12-18T07:28:41;11.70;;;6.30;;
21305;SDS011;10812;51.838;5.838;2022-12-18T07:31:12;10.40;;;6.43;;
21305;SDS011;10812;51.838;5.838;2022-12-18T07:33:42;12.53;;;6.70;;
21305;SDS011;10812;51.838;5.838;2022-12-18T07:36:10;12.90;;;6.43;;
21305;SDS011;10812;51.838;5.838;2022-12-18T07:38:38;14.70;;;6.97;;
21305;SDS011;10812;51.838;5.838;2022-12-18T07:41:07;12.57;;;6.93;;
21305;SDS011;10812;51.838;5.838;2022-12-18T07:43:37;11.17;;;6.27;;
21305;SDS011;10812;51.838;5.838;2022-12-18T07:46:07;11.77;;;7.10;;
21305;SDS011;10812;51.838;5.838;2022-12-18T07:48:40;10.63;;;5.87;;
21305;SDS011;10812;51.838;5.838;2022-12-18T07:51:10;10.97;;;5.93;;
21305;SDS011;10812;51.838;5.838;2022-12-18T07:53:39;12.17;;;6.10;;
21305;SDS011;10812;51.838;5.838;2022-12-18T07:56:08;14.20;;;5.87;;
21305;SDS011;10812;51.838;5.838;2022-12-18T07:58:55;10.97;;;6.73;;
21305;SDS011;10812;51.838;5.838;2022-12-18T08:01:24;13.30;;;7.07;;
21305;SDS011;10812;51.838;5.838;2022-12-18T08:03:54;11.93;;;6.50;;
21305;SDS011;10812;51.838;5.838;2022-12-18T08:06:22;12.90;;;7.43;;
21305;SDS011;10812;51.838;5.838;2022-12-18T08:08:51;12.00;;;6.73;;
21305;SDS011;10812;51.838;5.838;2022-12-18T08:11:20;13.10;;;6.87;;
21305;SDS011;10812;51.838;5.838;2022-12-18T08:13:48;12.00;;;6.43;;
21305;SDS011;10812;51.838;5.838;2022-12-18T08:16:17;11.90;;;6.83;;
21305;SDS011;10812;51.838;5.838;2022-12-18T08:18:46;12.27;;;6.63;;
21305;SDS011;10812;51.838;5.838;2022-12-18T08:21:16;13.20;;;6.57;;
21305;SDS011;10812;51.838;5.838;2022-12-18T08:23:47;11.50;;;6.67;;
21305;SDS011;10812;51.838;5.838;2022-12-18T08:26:17;10.40;;;5.90;;
21305;SDS011;10812;51.838;5.838;2022-12-18T08:28:47;9.63;;;6.70;;
21305;SDS011;10812;51.838;5.838;2022-12-18T08:31:16;14.47;;;7.27;;
21305;SDS011;10812;51.838;5.838;2022-12-18T08:33:45;10.77;;;5.80;;
21305;SDS011;10812;51.838;5.838;2022-12-18T08:36:16;15.43;;;7.67;;
21305;SDS011;10812;51.838;5.838;2022-12-18T08:38:44;13.07;;;7.67;;
21305;SDS011;10812;51.838;5.838;2022-12-18T08:41:13;12.13;;;6.00;;
21305;SDS011;10812;51.838;5.838;2022-12-18T08:43:43;10.70;;;5.33;;
21305;SDS011;10812;51.838;5.838;2022-12-18T08:46:31;9.73;;;5.57;;
21305;SDS011;10812;51.838;5.838;2022-12-18T08:49:01;10.23;;;5.60;;
21305;SDS011;10812;51.838;5.838;2022-12-18T08:51:31;15.03;;;6.63;;
21305;SDS011;10812;51.838;5.838;2022-12-18T08:54:00;12.03;;;6.80;;
21305;SDS011;10812;51.838;5.838;2022-12-18T08:56:29;10.80;;;5.93;;
21305;SDS011;10812;51.838;5.838;2022-12-18T08:58:58;9.07;;;5.60;;
21305;SDS011;10812;51.838;5.838;2022-12-18T09:01:26;13.80;;;6.13;;
21305;SDS011;10812;51.838;5.838;2022-12-18T09:03:55;9.97;;;5.87;;
21305;SDS011;10812;51.838;5.838;2022-12-18T09:06:23;10.00;;;6.10;;
21305;SDS011;10812;51.838;5.838;2022-12-18T09:08:54;12.20;;;6.43;;
21305;SDS011;10812;51.838;5.838;2022-12-18T09:11:22;9.70;;;5.93;;
21305;SDS011;10812;51.838;5.838;2022-12-18T09:13:53;9.33;;;5.17;;
21305;SDS011;10812;51.838;5.838;2022-12-18T09:16:22;13.53;;;6.77;;
21305;SDS011;10812;51.838;5.838;2022-12-18T09:18:57;9.37;;;5.63;;
21305;SDS011;10812;51.838;5.838;2022-12-18T09:21:26;11.37;;;6.03;;
21305;SDS011;10812;51.838;5.838;2022-12-18T09:23:57;12.83;;;6.00;;
21305;SDS011;10812;51.838;5.838;2022-12-18T09:33:37;9.67;;;5.57;;
21305;SDS011;10812;51.838;5.838;2022-12-18T09:36:06;8.27;;;5.37;;
21305;SDS011;10812;51.838;5.838;2022-12-18T09:38:36;12.73;;;6.70;;
21305;SDS011;10812;51.838;5.838;2022-12-18T09:41:13;10.83;;;5.70;;
21305;SDS011;10812;51.838;5.838;2022-12-18T09:43:51;8.97;;;5.47;;
21305;SDS011;10812;51.838;5.838;2022-12-18T09:46:26;11.67;;;5.90;;
21305;SDS011;10812;51.838;5.838;2022-12-18T09:48:58;11.97;;;6.73;;
21305;SDS011;10812;51.838;5.838;2022-12-18T09:51:29;10.60;;;6.00;;
21305;SDS011;10812;51.838;5.838;2022-12-18T09:54:03;12.70;;;6.40;;
21305;SDS011;10812;51.838;5.838;2022-12-18T09:56:37;8.97;;;5.40;;
21305;SDS011;10812;51.838;5.838;2022-12-18T09:59:15;9.30;;;5.33;;
21305;SDS011;10812;51.838;5.838;2022-12-18T10:01:48;11.53;;;5.90;;
21305;SDS011;10812;51.838;5.838;2022-12-18T10:04:17;7.70;;;4.57;;
21305;SDS011;10812;51.838;5.838;2022-12-18T10:06:46;12.87;;;7.17;;
21305;SDS011;10812;51.838;5.838;2022-12-18T10:09:25;11.60;;;6.23;;
21305;SDS011;10812;51.838;5.838;2022-12-18T10:12:02;10.53;;;5.97;;
21305;SDS011;10812;51.838;5.838;2022-12-18T10:14:36;13.60;;;6.93;;
21305;SDS011;10812;51.838;5.838;2022-12-18T10:17:16;11.10;;;6.27;;
21305;SDS011;10812;51.838;5.838;2022-12-18T10:19:52;9.20;;;5.60;;
21305;SDS011;10812;51.838;5.838;2022-12-18T10:25:19;11.83;;;6.10;;
21305;SDS011;10812;51.838;5.838;2022-12-18T10:27:55;10.93;;;6.23;;
21305;SDS011;10812;51.838;5.838;2022-12-18T10:30:25;10.90;;;5.27;;
21305;SDS011;10812;51.838;5.838;2022-12-18T10:32:54;9.17;;;5.70;;
21305;SDS011;10812;51.838;5.838;2022-12-18T10:35:28;12.80;;;6.90;;
21305;SDS011;10812;51.838;5.838;2022-12-18T10:38:00;12.00;;;6.30;;
21305;SDS011;10812;51.838;5.838;2022-12-18T10:40:30;10.97;;;5.33;;
21305;SDS011;10812;51.838;5.838;2022-12-18T10:43:10;8.13;;;5.87;;
21305;SDS011;10812;51.838;5.838;2022-12-18T10:45:41;10.30;;;5.50;;
21305;SDS011;10812;51.838;5.838;2022-12-18T10:48:17;11.60;;;6.63;;
21305;SDS011;10812;51.838;5.838;2022-12-18T10:50:47;10.67;;;5.73;;
21305;SDS011;10812;51.838;5.838;2022-12-18T10:53:38;10.07;;;6.13;;
21305;SDS011;10812;51.838;5.838;2022-12-18T10:56:09;11.27;;;5.60;;
21305;SDS011;10812;51.838;5.838;2022-12-18T10:58:39;10.33;;;6.50;;
21305;SDS011;10812;51.838;5.838;2022-12-18T11:01:09;10.43;;;6.33;;
21305;SDS011;10812;51.838;5.838;2022-12-18T11:03:39;12.73;;;6.37;;
21305;SDS011;10812;51.838;5.838;2022-12-18T11:06:10;7.40;;;4.93;;
21305;SDS011;10812;51.838;5.838;2022-12-18T11:08:40;10.40;;;6.57;;
21305;SDS011;10812;51.838;5.838;2022-12-18T11:11:19;10.43;;;6.57;;
21305;SDS011;10812;51.838;5.838;2022-12-18T11:13:55;10.70;;;6.93;;
21305;SDS011;10812;51.838;5.838;2022-12-18T11:16:29;10.43;;;5.50;;
21305;SDS011;10812;51.838;5.838;2022-12-18T11:19:09;14.27;;;7.43;;
21305;SDS011;10812;51.838;5.838;2022-12-18T11:21:50;10.67;;;7.07;;
21305;SDS011;10812;51.838;5.838;2022-12-18T11:24:20;11.73;;;6.13;;
21305;SDS011;10812;51.838;5.838;2022-12-18T11:26:52;10.23;;;6.07;;
21305;SDS011;10812;51.838;5.838;2022-12-18T11:29:28;10.83;;;6.40;;
21305;SDS011;10812;51.838;5.838;2022-12-18T11:32:20;10.40;;;6.53;;
21305;SDS011;10812;51.838;5.838;2022-12-18T11:34:59;11.33;;;5.93;;
21305;SDS011;10812;51.838;5.838;2022-12-18T11:37:31;10.13;;;6.17;;
21305;SDS011;10812;51.838;5.838;2022-12-18T11:40:01;9.53;;;6.07;;
21305;SDS011;10812;51.838;5.838;2022-12-18T11:42:35;12.03;;;6.67;;
21305;SDS011;10812;51.838;5.838;2022-12-18T11:45:20;10.87;;;6.00;;
21305;SDS011;10812;51.838;5.838;2022-12-18T11:47:56;19.90;;;6.87;;
21305;SDS011;10812;51.838;5.838;2022-12-18T11:50:28;11.50;;;6.00;;
21305;SDS011;10812;51.838;5.838;2022-12-18T11:53:01;11.97;;;6.50;;
21305;SDS011;10812;51.838;5.838;2022-12-18T11:55:35;12.03;;;6.43;;
21305;SDS011;10812;51.838;5.838;2022-12-18T11:58:10;11.57;;;6.47;;
21305;SDS011;10812;51.838;5.838;2022-12-18T12:00:45;11.33;;;6.60;;
21305;SDS011;10812;51.838;5.838;2022-12-18T12:03:21;10.80;;;6.27;;
21305;SDS011;10812;51.838;5.838;2022-12-18T12:06:09;10.90;;;7.03;;
21305;SDS011;10812;51.838;5.838;2022-12-18T12:08:46;10.90;;;6.63;;
21305;SDS011;10812;51.838;5.838;2022-12-18T12:11:35;11.77;;;6.57;;
21305;SDS011;10812;51.838;5.838;2022-12-18T12:14:14;13.60;;;6.63;;
21305;SDS011;10812;51.838;5.838;2022-12-18T12:16:55;10.70;;;6.73;;
21305;SDS011;10812;51.838;5.838;2022-12-18T12:19:31;10.50;;;6.60;;
21305;SDS011;10812;51.838;5.838;2022-12-18T12:22:08;12.23;;;6.53;;
21305;SDS011;10812;51.838;5.838;2022-12-18T12:24:46;15.47;;;7.13;;
21305;SDS011;10812;51.838;5.838;2022-12-18T12:27:26;11.53;;;6.60;;
21305;SDS011;10812;51.838;5.838;2022-12-18T12:30:06;16.00;;;6.57;;
21305;SDS011;10812;51.838;5.838;2022-12-18T12:32:45;12.73;;;6.67;;
21305;SDS011;10812;51.838;5.838;2022-12-18T12:35:32;11.20;;;6.70;;
21305;SDS011;10812;51.838;5.838;2022-12-18T12:38:10;11.20;;;6.27;;
21305;SDS011;10812;51.838;5.838;2022-12-18T12:40:42;13.73;;;6.90;;
21305;SDS011;10812;51.838;5.838;2022-12-18T12:43:25;10.53;;;6.30;;
21305;SDS011;10812;51.838;5.838;2022-12-18T12:45:58;10.47;;;6.13;;
21305;SDS011;10812;51.838;5.838;2022-12-18T12:48:36;13.57;;;7.37;;
21305;SDS011;10812;51.838;5.838;2022-12-18T12:51:14;12.37;;;7.13;;
21305;SDS011;10812;51.838;5.838;2022-12-18T12:53:46;12.77;;;7.10;;
21305;SDS011;10812;51.838;5.838;2022-12-18T12:56:16;14.27;;;7.33;;
21305;SDS011;10812;51.838;5.838;2022-12-18T12:58:51;15.13;;;7.37;;
21305;SDS011;10812;51.838;5.838;2022-12-18T13:01:27;11.40;;;6.87;;
21305;SDS011;10812;51.838;5.838;2022-12-18T13:04:06;12.17;;;7.07;;
21305;SDS011;10812;51.838;5.838;2022-12-18T13:06:43;13.60;;;6.97;;
21305;SDS011;10812;51.838;5.838;2022-12-18T13:09:15;13.23;;;7.57;;
21305;SDS011;10812;51.838;5.838;2022-12-18T13:11:44;14.73;;;7.53;;
21305;SDS011;10812;51.838;5.838;2022-12-18T13:14:32;10.37;;;5.97;;
21305;SDS011;10812;51.838;5.838;2022-12-18T13:20:07;11.83;;;7.00;;
21305;SDS011;10812;51.838;5.838;2022-12-18T13:22:40;14.53;;;7.13;;
21305;SDS011;10812;51.838;5.838;2022-12-18T13:28:07;12.37;;;7.23;;
21305;SDS011;10812;51.838;5.838;2022-12-18T13:30:45;11.67;;;7.13;;
21305;SDS011;10812;51.838;5.838;2022-12-18T13:33:38;11.90;;;7.03;;
21305;SDS011;10812;51.838;5.838;2022-12-18T13:36:32;10.43;;;6.57;;
21305;SDS011;10812;51.838;5.838;2022-12-18T13:45:43;11.87;;;7.20;;
21305;SDS011;10812;51.838;5.838;2022-12-18T13:48:21;11.30;;;6.33;;
21305;SDS011;10812;51.838;5.838;2022-12-18T13:50:52;12.90;;;7.80;;
21305;SDS011;10812;51.838;5.838;2022-12-18T13:53:26;16.43;;;8.30;;
21305;SDS011;10812;51.838;5.838;2022-12-18T13:55:57;14.27;;;7.27;;
21305;SDS011;10812;51.838;5.838;2022-12-18T13:58:25;14.37;;;7.07;;
21305;SDS011;10812;51.838;5.838;2022-12-18T14:00:53;12.87;;;7.50;;
21305;SDS011;10812;51.838;5.838;2022-12-18T14:03:23;15.97;;;7.47;;
21305;SDS011;10812;51.838;5.838;2022-12-18T14:05:55;12.83;;;6.93;;
21305;SDS011;10812;51.838;5.838;2022-12-18T14:08:29;11.93;;;8.03;;
21305;SDS011;10812;51.838;5.838;2022-12-18T14:11:03;13.47;;;7.90;;
21305;SDS011;10812;51.838;5.838;2022-12-18T14:13:36;12.03;;;6.77;;
21305;SDS011;10812;51.838;5.838;2022-12-18T14:16:11;11.60;;;6.93;;
21305;SDS011;10812;51.838;5.838;2022-12-18T14:18:42;15.87;;;8.13;;
21305;SDS011;10812;51.838;5.838;2022-12-18T14:21:17;13.80;;;7.13;;
21305;SDS011;10812;51.838;5.838;2022-12-18T14:23:49;14.17;;;8.03;;
21305;SDS011;10812;51.838;5.838;2022-12-18T14:26:31;14.47;;;7.93;;
21305;SDS011;10812;51.838;5.838;2022-12-18T14:29:00;15.23;;;7.70;;
21305;SDS011;10812;51.838;5.838;2022-12-18T14:31:50;13.10;;;7.73;;
21305;SDS011;10812;51.838;5.838;2022-12-18T14:34:40;13.17;;;8.00;;
21305;SDS011;10812;51.838;5.838;2022-12-18T14:37:09;13.87;;;8.30;;
21305;SDS011;10812;51.838;5.838;2022-12-18T14:39:39;13.07;;;7.83;;
21305;SDS011;10812;51.838;5.838;2022-12-18T14:42:09;11.00;;;7.47;;
21305;SDS011;10812;51.838;5.838;2022-12-18T14:44:38;14.13;;;7.97;;
21305;SDS011;10812;51.838;5.838;2022-12-18T14:47:26;13.93;;;7.50;;
21305;SDS011;10812;51.838;5.838;2022-12-18T14:49:54;19.07;;;9.17;;
21305;SDS011;10812;51.838;5.838;2022-12-18T14:52:28;12.50;;;7.43;;
21305;SDS011;10812;51.838;5.838;2022-12-18T14:55:00;14.23;;;7.70;;
21305;SDS011;10812;51.838;5.838;2022-12-18T14:57:29;12.70;;;7.20;;
21305;SDS011;10812;51.838;5.838;2022-12-18T15:00:04;14.13;;;8.63;;
21305;SDS011;10812;51.838;5.838;2022-12-18T15:02:34;15.43;;;8.33;;
21305;SDS011;10812;51.838;5.838;2022-12-18T15:05:04;16.77;;;8.50;;
21305;SDS011;10812;51.838;5.838;2022-12-18T15:07:43;16.20;;;8.97;;
21305;SDS011;10812;51.838;5.838;2022-12-18T15:10:16;16.23;;;9.27;;
21305;SDS011;10812;51.838;5.838;2022-12-18T15:12:46;15.30;;;8.57;;
21305;SDS011;10812;51.838;5.838;2022-12-18T15:18:13;12.63;;;7.97;;
21305;SDS011;10812;51.838;5.838;2022-12-18T15:20:44;14.57;;;8.63;;
21305;SDS011;10812;51.838;5.838;2022-12-18T15:23:16;14.60;;;8.80;;
21305;SDS011;10812;51.838;5.838;2022-12-18T15:25:48;12.50;;;7.73;;
21305;SDS011;10812;51.838;5.838;2022-12-18T15:28:25;18.37;;;7.93;;
21305;SDS011;10812;51.838;5.838;2022-12-18T15:31:00;17.47;;;8.90;;
21305;SDS011;10812;51.838;5.838;2022-12-18T15:33:34;15.80;;;8.63;;
21305;SDS011;10812;51.838;5.838;2022-12-18T15:36:04;14.17;;;8.27;;
21305;SDS011;10812;51.838;5.838;2022-12-18T15:38:36;17.13;;;9.33;;